Time;durP1;ratioP1;P1;durP2;ratioP2;P2;SDS_P1;SDS_P2;PMS_P1;PMS_P2;Temp;Humidity;BMP_temperature;BMP_pressure;BME280_temperature;BME280_humidity;BME280_pressure;Samples;Min_cycle;Max_cycle;Signal;HPM_P1;HPM_P2
2021/01/12 00:02:20;;;;;;;12.20;6.37;;;2.40;99.90;;;;;;5087029;28;20473;-69
2021/01/12 00:04:47;;;;;;;12.50;7.37;;;2.40;99.90;;;;;;5098214;27;20452;-70
2021/01/12 00:07:14;;;;;;;12.70;6.73;;;2.40;99.90;;;;;;5084806;28;20518;-70
2021/01/12 00:09:40;;;;;;;12.57;7.07;;;2.40;99.90;;;;;;5086086;28;20455;-70
2021/01/12 00:12:07;;;;;;;9.90;6.70;;;2.40;99.90;;;;;;5073798;28;20461;-71
2021/01/12 00:14:33;;;;;;;11.73;6.40;;;2.40;99.90;;;;;;5090297;28;20311;-70
2021/01/12 00:17:00;;;;;;;16.17;7.63;;;2.40;99.90;;;;;;5090134;27;20459;-70
2021/01/12 00:19:26;;;;;;;12.93;7.60;;;2.40;99.90;;;;;;5063785;28;20451;-70
2021/01/12 00:21:52;;;;;;;17.37;8.97;;;2.40;99.90;;;;;;5083743;28;20457;-71
2021/01/12 00:24:19;;;;;;;12.80;6.27;;;2.40;99.90;;;;;;5093430;27;20459;-68
2021/01/12 00:26:46;;;;;;;20.23;7.77;;;2.40;99.90;;;;;;5092703;28;20475;-69
2021/01/12 00:29:12;;;;;;;13.33;7.57;;;2.40;99.90;;;;;;5100232;28;20441;-69
2021/01/12 00:31:42;;;;;;;10.30;7.43;;;2.30;99.90;;;;;;5083435;28;20554;-69
2021/01/12 00:34:08;;;;;;;14.17;6.80;;;2.30;99.90;;;;;;5094802;28;20301;-69
2021/01/12 00:36:42;;;;;;;15.80;7.83;;;2.30;99.90;;;;;;5068721;28;20458;-69
2021/01/12 00:39:08;;;;;;;13.90;8.00;;;2.30;99.90;;;;;;5084489;28;20473;-70
2021/01/12 00:41:35;;;;;;;11.87;6.60;;;2.30;99.90;;;;;;5066107;27;20445;-69
2021/01/12 00:44:01;;;;;;;13.57;7.00;;;2.30;99.90;;;;;;5094886;27;20447;-70
2021/01/12 00:46:27;;;;;;;14.43;6.57;;;2.30;99.90;;;;;;5060918;27;20480;-70
2021/01/12 00:48:52;;;;;;;14.33;7.43;;;2.30;99.90;;;;;;5084975;28;20484;-71
2021/01/12 00:51:18;;;;;;;14.27;7.20;;;2.30;99.90;;;;;;5081815;28;20556;-70
2021/01/12 00:53:45;;;;;;;17.50;7.60;;;2.30;99.90;;;;;;5083923;28;20275;-69
2021/01/12 00:56:12;;;;;;;11.77;7.13;;;2.30;99.90;;;;;;5065172;28;20460;-69
2021/01/12 00:58:38;;;;;;;17.23;6.63;;;2.30;99.90;;;;;;5084459;28;20240;-68
2021/01/12 01:01:04;;;;;;;11.30;6.00;;;2.30;99.90;;;;;;5076853;28;21032;-69
2021/01/12 01:03:30;;;;;;;15.20;6.20;;;2.30;99.90;;;;;;5094850;27;20210;-70
2021/01/12 01:05:55;;;;;;;13.93;6.10;;;2.20;99.90;;;;;;5072101;28;20520;-67
2021/01/12 01:08:21;;;;;;;10.93;6.77;;;2.20;99.90;;;;;;5062674;28;20215;-70
2021/01/12 01:10:47;;;;;;;12.50;6.60;;;2.20;99.90;;;;;;5079935;28;20230;-69
2021/01/12 01:13:12;;;;;;;14.57;6.40;;;2.20;99.90;;;;;;5075955;28;20222;-67
2021/01/12 01:15:38;;;;;;;11.67;6.50;;;2.20;99.90;;;;;;5098046;28;20691;-69
2021/01/12 01:18:18;;;;;;;12.50;6.83;;;2.20;99.90;;;;;;5097995;28;20317;-70
2021/01/12 01:20:43;;;;;;;11.03;7.10;;;2.20;99.90;;;;;;5078533;28;20218;-69
2021/01/12 01:23:17;;;;;;;10.80;6.13;;;2.20;99.90;;;;;;5095299;28;20452;-70
2021/01/12 01:25:43;;;;;;;11.07;6.50;;;2.20;99.90;;;;;;5069813;27;20242;-68
2021/01/12 01:28:09;;;;;;;11.33;6.67;;;2.20;99.90;;;;;;5097131;27;21028;-67
2021/01/12 01:30:35;;;;;;;8.83;5.50;;;2.20;99.90;;;;;;5097202;27;20468;-67
2021/01/12 01:33:01;;;;;;;13.27;6.60;;;2.20;99.90;;;;;;5088152;28;20460;-69
2021/01/12 01:35:26;;;;;;;12.40;5.90;;;2.20;99.90;;;;;;5068458;28;20219;-67
2021/01/12 01:37:52;;;;;;;9.33;5.87;;;2.20;99.90;;;;;;5076350;28;20225;-68
2021/01/12 01:40:22;;;;;;;13.87;7.17;;;2.20;99.90;;;;;;5076877;28;20211;-68
2021/01/12 01:42:49;;;;;;;12.27;5.20;;;2.20;99.90;;;;;;5075126;28;20215;-67
2021/01/12 01:45:16;;;;;;;9.10;5.07;;;2.20;99.90;;;;;;5063363;28;20441;-68
2021/01/12 01:47:46;;;;;;;9.90;6.80;;;2.20;99.90;;;;;;5073150;28;20558;-68
2021/01/12 01:50:16;;;;;;;9.87;5.40;;;2.20;99.90;;;;;;5110380;27;20507;-68
2021/01/12 01:52:53;;;;;;;11.80;7.33;;;2.20;99.90;;;;;;5097087;27;20482;-68
2021/01/12 01:55:20;;;;;;;9.07;5.73;;;2.20;99.90;;;;;;5097094;27;20451;-67
2021/01/12 01:57:46;;;;;;;9.20;6.10;;;2.20;99.90;;;;;;5109731;28;20533;-68
2021/01/12 02:00:16;;;;;;;8.07;5.00;;;2.30;99.90;;;;;;5102122;28;20444;-70
2021/01/12 02:03:00;;;;;;;14.60;6.50;;;2.30;99.90;;;;;;5097379;27;20443;-68
2021/01/12 02:05:32;;;;;;;12.80;6.20;;;2.30;99.90;;;;;;5113709;27;20447;-69
2021/01/12 02:08:05;;;;;;;9.77;6.27;;;2.30;99.90;;;;;;5107684;27;20444;-69
2021/01/12 02:10:35;;;;;;;8.83;5.60;;;2.30;99.90;;;;;;5085076;28;20448;-68
2021/01/12 02:13:03;;;;;;;13.30;6.60;;;2.30;99.90;;;;;;5099948;27;20458;-67
2021/01/12 02:15:29;;;;;;;13.50;6.33;;;2.30;99.90;;;;;;5101574;28;20964;-67
2021/01/12 02:17:56;;;;;;;8.00;5.40;;;2.30;99.90;;;;;;5075667;28;20456;-68
2021/01/12 02:20:27;;;;;;;14.70;7.00;;;2.30;99.90;;;;;;5110960;28;20455;-67
2021/01/12 02:23:14;;;;;;;13.37;6.87;;;2.30;99.90;;;;;;5111380;27;20453;-68
2021/01/12 02:25:41;;;;;;;11.90;5.93;;;2.30;99.90;;;;;;5100124;27;20539;-68
2021/01/12 02:28:10;;;;;;;12.37;6.53;;;2.30;99.90;;;;;;5096060;27;20474;-69
2021/01/12 02:30:37;;;;;;;11.40;7.23;;;2.40;99.90;;;;;;5113158;27;20546;-67
2021/01/12 02:33:04;;;;;;;11.20;7.87;;;2.40;99.90;;;;;;5095577;27;20471;-67
2021/01/12 02:35:32;;;;;;;10.87;5.60;;;2.40;99.90;;;;;;5064841;28;20444;-68
2021/01/12 02:37:58;;;;;;;10.60;6.90;;;2.40;99.90;;;;;;5091972;28;20456;-68
2021/01/12 02:40:24;;;;;;;12.60;6.77;;;2.40;99.90;;;;;;5075845;28;20587;-68
2021/01/12 02:42:51;;;;;;;11.67;6.60;;;2.40;99.90;;;;;;5084058;28;20448;-68
2021/01/12 02:45:17;;;;;;;11.20;6.63;;;2.40;99.90;;;;;;5083701;28;20472;-67
2021/01/12 02:47:43;;;;;;;13.03;7.43;;;2.40;99.90;;;;;;5058990;28;20470;-68
2021/01/12 02:50:12;;;;;;;8.37;5.23;;;2.40;99.90;;;;;;5057141;28;20512;-68
2021/01/12 02:52:42;;;;;;;13.27;6.60;;;2.40;99.90;;;;;;5075219;28;20229;-67
2021/01/12 02:55:09;;;;;;;12.07;7.00;;;2.50;99.90;;;;;;5092465;28;20458;-69
2021/01/12 02:57:35;;;;;;;10.90;6.33;;;2.50;99.90;;;;;;5092826;28;20476;-68
2021/01/12 03:00:05;;;;;;;9.20;5.87;;;2.50;99.90;;;;;;5069191;28;21006;-67
2021/01/12 03:02:31;;;;;;;12.43;5.80;;;2.40;99.90;;;;;;5075658;28;20271;-68
2021/01/12 03:04:56;;;;;;;9.90;5.93;;;2.50;99.90;;;;;;5063092;28;20445;-67
2021/01/12 03:07:22;;;;;;;13.50;6.00;;;2.50;99.90;;;;;;5100910;28;20217;-69
2021/01/12 03:09:48;;;;;;;7.07;4.73;;;2.50;99.90;;;;;;5095654;28;20226;-68
2021/01/12 03:12:13;;;;;;;12.30;5.30;;;2.50;99.90;;;;;;5093701;28;20698;-68
2021/01/12 03:14:41;;;;;;;9.27;4.37;;;2.50;99.90;;;;;;5054685;28;20212;-67
2021/01/12 03:17:13;;;;;;;12.13;6.30;;;2.50;99.90;;;;;;5071040;28;20228;-68
2021/01/12 03:19:38;;;;;;;12.33;6.03;;;2.50;99.90;;;;;;5071879;28;21050;-68
2021/01/12 03:22:04;;;;;;;10.30;6.20;;;2.50;99.90;;;;;;5071351;28;20491;-67
2021/01/12 03:24:30;;;;;;;6.93;4.73;;;2.50;99.90;;;;;;5075265;28;20215;-67
2021/01/12 03:26:56;;;;;;;8.00;5.00;;;2.50;99.90;;;;;;5061556;28;20467;-67
2021/01/12 03:29:22;;;;;;;11.10;5.10;;;2.50;99.90;;;;;;5089434;28;20219;-67
2021/01/12 03:31:47;;;;;;;7.23;4.00;;;2.50;99.90;;;;;;5090961;28;20314;-67
2021/01/12 03:34:13;;;;;;;12.40;5.70;;;2.50;99.90;;;;;;5060169;28;20220;-67
2021/01/12 03:36:39;;;;;;;11.57;5.30;;;2.50;99.90;;;;;;5062297;27;20221;-67
2021/01/12 03:39:05;;;;;;;11.67;6.60;;;2.50;99.90;;;;;;5099185;27;20287;-68
2021/01/12 03:41:31;;;;;;;7.03;4.47;;;2.50;99.90;;;;;;5099006;27;20220;-67
2021/01/12 03:43:58;;;;;;;7.70;4.23;;;2.50;99.90;;;;;;5087114;28;20476;-68
2021/01/12 03:46:24;;;;;;;7.10;4.50;;;2.50;99.90;;;;;;5082824;28;20444;-67
2021/01/12 03:48:50;;;;;;;10.07;5.27;;;2.40;99.90;;;;;;5101222;28;21303;-67
2021/01/12 03:51:16;;;;;;;8.50;4.67;;;2.40;99.90;;;;;;5078612;28;20464;-67
2021/01/12 03:53:41;;;;;;;9.87;5.73;;;2.40;99.90;;;;;;5095955;28;20225;-68
2021/01/12 03:56:07;;;;;;;8.67;5.00;;;2.40;99.90;;;;;;5045285;28;20222;-68
2021/01/12 03:58:32;;;;;;;8.90;6.30;;;2.30;99.90;;;;;;5095861;28;20232;-67
2021/01/12 04:00:58;;;;;;;8.90;4.70;;;2.30;99.90;;;;;;5078184;28;20222;-68
2021/01/12 04:03:27;;;;;;;7.17;4.30;;;2.40;99.90;;;;;;5058577;28;20226;-67
2021/01/12 04:05:53;;;;;;;8.63;4.23;;;2.40;99.90;;;;;;5086550;28;20350;-67
2021/01/12 04:08:18;;;;;;;5.53;4.27;;;2.40;99.90;;;;;;5060069;28;20474;-68
2021/01/12 04:10:44;;;;;;;7.90;4.30;;;2.40;99.90;;;;;;5058539;28;20317;-67
2021/01/12 04:13:10;;;;;;;12.23;5.83;;;2.40;99.90;;;;;;5074621;28;20223;-68
2021/01/12 04:15:35;;;;;;;6.23;3.70;;;2.30;99.90;;;;;;5087032;28;20211;-68
2021/01/12 04:18:01;;;;;;;8.47;4.80;;;2.30;99.90;;;;;;5054139;28;20215;-67
2021/01/12 04:20:27;;;;;;;7.80;4.00;;;2.30;99.90;;;;;;5092169;28;20235;-67
2021/01/12 04:22:52;;;;;;;5.23;4.03;;;2.30;99.90;;;;;;5091461;28;20715;-67
2021/01/12 04:25:19;;;;;;;6.03;4.57;;;2.30;99.90;;;;;;5075573;27;20215;-67
2021/01/12 04:27:45;;;;;;;6.40;4.43;;;2.30;99.90;;;;;;5084212;28;20254;-67
2021/01/12 04:30:11;;;;;;;5.90;4.60;;;2.30;99.90;;;;;;5094376;28;20878;-67
2021/01/12 04:32:37;;;;;;;5.73;3.87;;;2.20;99.90;;;;;;5061607;28;20601;-67
2021/01/12 04:35:03;;;;;;;6.60;4.17;;;2.20;99.90;;;;;;5061252;28;20502;-68
2021/01/12 04:37:29;;;;;;;4.67;3.63;;;2.20;99.90;;;;;;5061592;28;20734;-67
2021/01/12 04:39:54;;;;;;;6.37;3.77;;;2.20;99.90;;;;;;5077631;28;20464;-69
2021/01/12 04:42:20;;;;;;;5.97;3.97;;;2.20;99.90;;;;;;5097049;27;20745;-68
2021/01/12 04:44:46;;;;;;;4.87;3.40;;;2.20;99.90;;;;;;5106171;27;20217;-67
2021/01/12 04:47:11;;;;;;;6.43;3.50;;;2.20;99.90;;;;;;5087593;28;20228;-68
2021/01/12 04:49:37;;;;;;;3.83;2.80;;;2.20;99.90;;;;;;5074380;28;20303;-68
2021/01/12 04:52:04;;;;;;;5.60;3.43;;;2.20;99.90;;;;;;5074173;28;20567;-67
2021/01/12 04:54:34;;;;;;;5.20;3.57;;;2.20;99.90;;;;;;5091201;28;20219;-67
2021/01/12 04:57:00;;;;;;;5.63;3.17;;;2.20;99.90;;;;;;5101901;27;20452;-67
2021/01/12 04:59:30;;;;;;;5.00;3.17;;;2.20;99.90;;;;;;5114894;27;20456;-67
2021/01/12 05:01:56;;;;;;;6.80;4.10;;;2.20;99.90;;;;;;5096823;27;20447;-67
2021/01/12 05:04:22;;;;;;;4.10;3.33;;;2.20;99.90;;;;;;5090226;27;20975;-67
2021/01/12 05:06:49;;;;;;;3.00;2.70;;;2.20;99.90;;;;;;5094988;28;20513;-67
2021/01/12 05:09:22;;;;;;;5.17;3.47;;;2.20;99.90;;;;;;5098225;27;20865;-67
2021/01/12 05:11:49;;;;;;;3.87;3.20;;;2.20;99.90;;;;;;5097435;27;20475;-67
2021/01/12 05:14:16;;;;;;;2.80;2.40;;;2.20;99.90;;;;;;5088448;28;20512;-67
2021/01/12 05:16:51;;;;;;;8.20;2.80;;;2.20;99.90;;;;;;5090953;28;20452;-66
2021/01/12 05:19:28;;;;;;;7.20;2.50;;;2.20;99.90;;;;;;5072959;28;21316;-67
2021/01/12 05:22:04;;;;;;;3.97;2.93;;;2.20;99.90;;;;;;5086326;28;20848;-67
2021/01/12 05:24:39;;;;;;;4.90;3.77;;;2.30;99.90;;;;;;5112662;27;20462;-67
2021/01/12 05:27:06;;;;;;;2.60;2.10;;;2.20;99.90;;;;;;5072375;28;20499;-66
2021/01/12 05:29:34;;;;;;;5.30;2.93;;;2.20;99.90;;;;;;5088759;28;20472;-67
2021/01/12 05:32:02;;;;;;;4.57;3.20;;;2.20;99.90;;;;;;5068126;28;20457;-68
2021/01/12 05:34:29;;;;;;;3.00;2.33;;;2.20;99.90;;;;;;5060439;28;20584;-67
2021/01/12 05:37:00;;;;;;;3.30;3.00;;;2.20;99.90;;;;;;5076474;28;20538;-68
2021/01/12 05:39:26;;;;;;;2.27;2.10;;;2.30;99.90;;;;;;5095978;28;20464;-67
2021/01/12 05:41:57;;;;;;;3.10;2.70;;;2.20;99.90;;;;;;5067565;27;20480;-67
2021/01/12 05:44:24;;;;;;;3.27;2.20;;;2.20;99.90;;;;;;5100204;27;20568;-67
2021/01/12 05:46:52;;;;;;;3.10;2.10;;;2.20;99.90;;;;;;5084807;28;20581;-67
2021/01/12 05:49:19;;;;;;;2.70;1.70;;;2.20;99.90;;;;;;5076385;27;20458;-69
2021/01/12 05:51:50;;;;;;;2.70;1.90;;;2.20;99.90;;;;;;5094127;28;20464;-69
2021/01/12 05:54:30;;;;;;;2.63;2.00;;;2.20;99.90;;;;;;5076124;28;20441;-68
2021/01/12 05:57:02;;;;;;;1.83;1.73;;;2.20;99.90;;;;;;5076987;28;20822;-68
2021/01/12 05:59:29;;;;;;;2.63;2.43;;;2.20;99.90;;;;;;5094399;28;20534;-69
2021/01/12 06:01:56;;;;;;;4.83;3.93;;;2.20;99.90;;;;;;5084921;27;20455;-66
2021/01/12 06:04:23;;;;;;;3.93;3.63;;;2.20;99.90;;;;;;5080971;28;20452;-69
2021/01/12 06:06:51;;;;;;;3.50;3.20;;;2.20;99.90;;;;;;5062915;28;20539;-67
2021/01/12 06:09:18;;;;;;;3.23;2.70;;;2.20;99.90;;;;;;5068069;27;21132;-68
2021/01/12 06:11:52;;;;;;;3.33;2.57;;;2.10;99.90;;;;;;5079188;28;20995;-69
2021/01/12 06:14:29;;;;;;;1.53;1.23;;;2.20;99.90;;;;;;5058335;28;20479;-68
2021/01/12 06:16:56;;;;;;;1.77;1.57;;;2.10;99.90;;;;;;5092173;28;20559;-67
2021/01/12 06:19:26;;;;;;;1.63;1.43;;;2.10;99.90;;;;;;5089276;28;20476;-68
2021/01/12 06:21:55;;;;;;;1.50;1.40;;;2.10;99.90;;;;;;5094537;28;20475;-68
2021/01/12 06:24:42;;;;;;;1.73;1.33;;;2.10;99.90;;;;;;5096258;28;20608;-69
2021/01/12 06:27:10;;;;;;;2.23;2.00;;;2.20;99.90;;;;;;5092980;28;20471;-69
2021/01/12 06:29:38;;;;;;;2.93;2.03;;;2.20;99.90;;;;;;5072530;28;20464;-68
2021/01/12 06:32:04;;;;;;;2.03;1.57;;;2.20;99.90;;;;;;5077356;28;20453;-68
2021/01/12 06:34:31;;;;;;;1.73;1.30;;;2.20;99.90;;;;;;5047408;28;20956;-68
2021/01/12 06:36:59;;;;;;;1.80;1.70;;;2.20;99.90;;;;;;5084214;28;20457;-69
2021/01/12 06:39:34;;;;;;;1.70;1.53;;;2.20;99.90;;;;;;5062001;28;20466;-66
2021/01/12 06:42:04;;;;;;;1.90;1.80;;;2.20;99.90;;;;;;5083115;28;20449;-68
2021/01/12 06:44:33;;;;;;;4.33;2.33;;;2.20;99.90;;;;;;5088112;28;20459;-69
2021/01/12 06:46:59;;;;;;;3.73;3.33;;;2.20;99.90;;;;;;5079625;28;20452;-68
2021/01/12 06:49:27;;;;;;;14.57;8.23;;;2.20;99.90;;;;;;5096595;28;20460;-68
2021/01/12 06:52:04;;;;;;;21.57;13.47;;;2.20;99.90;;;;;;5078610;28;20453;-68
2021/01/12 06:54:41;;;;;;;15.03;9.60;;;2.20;99.90;;;;;;5079897;28;20456;-69
2021/01/12 06:57:12;;;;;;;3.80;3.40;;;2.20;99.90;;;;;;5067712;28;20448;-68
2021/01/12 06:59:46;;;;;;;1.53;1.37;;;2.20;99.90;;;;;;5063172;28;20469;-70
2021/01/12 07:02:23;;;;;;;2.57;1.60;;;2.20;99.90;;;;;;5058298;28;21025;-67
2021/01/12 07:04:57;;;;;;;1.23;1.10;;;2.20;99.90;;;;;;5076089;28;20928;-69
2021/01/12 07:07:24;;;;;;;0.70;0.70;;;2.20;99.90;;;;;;5085497;28;20448;-69
2021/01/12 07:09:55;;;;;;;1.43;1.20;;;2.20;99.90;;;;;;5096811;28;20460;-69
2021/01/12 07:12:22;;;;;;;1.10;1.00;;;2.20;99.90;;;;;;5078402;28;20446;-68
2021/01/12 07:15:13;;;;;;;1.33;1.17;;;2.20;99.90;;;;;;5076419;28;20449;-69
2021/01/12 07:17:50;;;;;;;0.90;0.80;;;2.20;99.90;;;;;;5068572;28;20449;-68
2021/01/12 07:20:19;;;;;;;5.33;2.20;;;2.20;99.90;;;;;;5095438;28;20960;-69
2021/01/12 07:23:05;;;;;;;2.60;1.70;;;2.20;99.90;;;;;;5098873;28;20446;-69
2021/01/12 07:25:32;;;;;;;3.30;1.70;;;2.20;99.90;;;;;;5079269;28;21000;-69
2021/01/12 07:28:07;;;;;;;2.30;2.10;;;2.20;99.90;;;;;;5106053;28;20439;-70
2021/01/12 07:30:35;;;;;;;3.80;2.93;;;2.20;99.90;;;;;;5133861;28;20443;-68
2021/01/12 07:33:03;;;;;;;3.93;2.13;;;2.20;99.90;;;;;;5095221;28;20440;-69
2021/01/12 07:35:29;;;;;;;3.27;2.73;;;2.20;99.90;;;;;;5099312;28;20428;-68
2021/01/12 07:37:55;;;;;;;2.03;1.90;;;2.20;99.90;;;;;;5133100;28;20454;-68
2021/01/12 07:40:22;;;;;;;2.07;1.70;;;2.20;99.90;;;;;;5109563;28;20436;-70
2021/01/12 07:42:49;;;;;;;2.70;2.50;;;2.20;99.90;;;;;;5108907;28;20210;-67
2021/01/12 07:45:17;;;;;;;3.40;3.00;;;2.20;99.90;;;;;;5062860;28;20471;-69
2021/01/12 07:47:43;;;;;;;3.73;2.97;;;2.20;99.90;;;;;;5096009;28;20456;-68
2021/01/12 07:50:09;;;;;;;2.67;2.20;;;2.20;99.90;;;;;;5093347;28;20458;-68
2021/01/12 07:52:35;;;;;;;3.20;2.00;;;2.20;99.90;;;;;;5072277;28;20491;-68
2021/01/12 07:55:00;;;;;;;2.10;1.87;;;2.10;99.90;;;;;;5079114;28;20448;-69
2021/01/12 07:57:27;;;;;;;2.20;1.90;;;2.20;99.90;;;;;;5096637;28;20218;-69
2021/01/12 07:59:54;;;;;;;2.60;1.70;;;2.20;99.90;;;;;;5073200;28;20249;-69
2021/01/12 08:02:23;;;;;;;1.50;1.40;;;2.20;99.90;;;;;;5065545;28;20456;-69
2021/01/12 08:04:49;;;;;;;2.00;1.80;;;2.20;99.90;;;;;;5079109;28;20515;-68
2021/01/12 08:07:25;;;;;;;2.83;1.97;;;2.20;99.90;;;;;;5077386;28;20465;-70
2021/01/12 08:09:58;;;;;;;2.20;2.00;;;2.20;99.90;;;;;;5085977;28;20225;-69
2021/01/12 08:12:24;;;;;;;1.57;1.40;;;2.20;99.90;;;;;;5058958;28;20469;-68
2021/01/12 08:14:51;;;;;;;2.40;1.80;;;2.20;99.90;;;;;;5086006;28;20459;-69
2021/01/12 08:17:26;;;;;;;1.67;1.43;;;2.20;99.90;;;;;;5072797;28;20455;-67
2021/01/12 08:19:55;;;;;;;2.10;1.87;;;2.20;99.90;;;;;;5080718;28;20488;-70
2021/01/12 08:22:22;;;;;;;1.23;1.13;;;2.20;99.90;;;;;;5097142;28;20451;-69
2021/01/12 08:24:48;;;;;;;1.57;1.47;;;2.20;99.90;;;;;;5081643;28;20455;-69
2021/01/12 08:27:18;;;;;;;2.73;1.87;;;2.20;99.90;;;;;;5095368;28;20443;-69
2021/01/12 08:29:44;;;;;;;2.03;1.47;;;2.20;99.90;;;;;;5078690;28;20581;-67
2021/01/12 08:32:13;;;;;;;1.50;1.40;;;2.20;99.90;;;;;;5080512;28;20975;-68
2021/01/12 08:34:56;;;;;;;1.00;0.97;;;2.20;99.90;;;;;;5075305;28;20219;-67
2021/01/12 08:37:23;;;;;;;1.33;1.00;;;2.30;99.90;;;;;;5063124;28;20521;-69
2021/01/12 08:40:04;;;;;;;2.30;1.80;;;2.20;99.90;;;;;;5052273;28;20481;-67
2021/01/12 08:42:32;;;;;;;3.43;2.50;;;2.20;99.90;;;;;;5099290;28;20440;-66
2021/01/12 08:44:59;;;;;;;4.63;4.23;;;2.30;99.90;;;;;;5088852;27;20467;-68
2021/01/12 08:47:26;;;;;;;4.03;3.73;;;2.20;99.90;;;;;;5098013;27;20479;-67
2021/01/12 08:50:05;;;;;;;3.20;3.00;;;2.30;99.90;;;;;;5074207;28;20885;-67
2021/01/12 08:52:32;;;;;;;3.93;3.63;;;2.30;99.90;;;;;;5076411;28;20455;-68
2021/01/12 08:54:58;;;;;;;4.47;4.03;;;2.30;99.90;;;;;;5076909;28;20544;-67
2021/01/12 08:57:24;;;;;;;2.77;2.53;;;2.20;99.90;;;;;;5077362;28;20525;-67
2021/01/12 08:59:49;;;;;;;1.70;1.60;;;2.30;99.90;;;;;;5077357;28;20468;-68
2021/01/12 09:02:19;;;;;;;1.40;1.30;;;2.30;99.90;;;;;;5055271;28;20223;-67
2021/01/12 09:05:02;;;;;;;1.43;1.33;;;2.30;99.90;;;;;;5082950;28;20262;-66
2021/01/12 09:07:32;;;;;;;1.93;1.83;;;2.30;99.90;;;;;;5092825;27;20508;-67
2021/01/12 09:09:58;;;;;;;1.50;1.33;;;2.30;99.90;;;;;;5088626;27;21023;-67
2021/01/12 09:12:23;;;;;;;1.07;1.00;;;2.30;99.90;;;;;;5080152;27;20440;-67
2021/01/12 09:14:50;;;;;;;1.40;1.30;;;2.30;99.90;;;;;;5092892;28;20222;-67
2021/01/12 09:17:19;;;;;;;1.60;0.90;;;2.30;99.90;;;;;;5078394;28;20228;-67
2021/01/12 09:19:53;;;;;;;0.70;0.70;;;2.30;99.90;;;;;;5075915;28;21016;-67
2021/01/12 09:22:20;;;;;;;1.37;1.00;;;2.40;99.90;;;;;;5097428;28;20459;-66
2021/01/12 09:24:53;;;;;;;0.80;0.80;;;2.40;99.90;;;;;;5096730;27;20528;-67
2021/01/12 09:27:29;;;;;;;0.80;0.80;;;2.40;99.90;;;;;;5113687;27;20448;-68
2021/01/12 09:29:55;;;;;;;0.90;0.80;;;2.40;99.90;;;;;;5105335;28;20520;-67
2021/01/12 09:32:30;;;;;;;2.10;1.20;;;2.40;99.90;;;;;;5083684;28;20461;-67
2021/01/12 09:34:56;;;;;;;1.00;0.80;;;2.50;99.90;;;;;;5075713;28;20563;-68
2021/01/12 09:37:22;;;;;;;1.50;1.40;;;2.50;99.90;;;;;;5075213;28;20962;-68
2021/01/12 09:39:56;;;;;;;1.83;1.73;;;2.50;99.90;;;;;;5076236;28;20461;-68
2021/01/12 09:42:24;;;;;;;2.13;1.60;;;2.50;99.90;;;;;;5065153;28;20456;-68
2021/01/12 09:44:51;;;;;;;4.43;2.67;;;2.50;99.90;;;;;;5088119;28;20463;-67
2021/01/12 09:47:17;;;;;;;3.60;1.40;;;2.50;99.90;;;;;;5092239;27;20449;-68
2021/01/12 09:49:43;;;;;;;1.57;1.10;;;2.50;99.90;;;;;;5110523;27;20554;-68
2021/01/12 09:52:08;;;;;;;1.33;1.23;;;2.60;99.90;;;;;;5089288;28;20532;-68
2021/01/12 09:54:34;;;;;;;2.43;2.20;;;2.60;99.90;;;;;;5093266;28;20694;-68
2021/01/12 09:57:00;;;;;;;4.40;3.80;;;2.60;99.90;;;;;;5061336;28;20215;-68
2021/01/12 09:59:26;;;;;;;6.50;4.70;;;2.60;99.90;;;;;;5084455;27;20229;-68
2021/01/12 10:01:56;;;;;;;9.93;5.77;;;2.60;99.90;;;;;;5091975;27;20460;-68
2021/01/12 10:04:22;;;;;;;9.00;4.80;;;2.60;99.90;;;;;;5087738;27;20265;-68
2021/01/12 10:06:57;;;;;;;15.43;8.37;;;2.70;99.90;;;;;;5091013;27;20531;-69
2021/01/12 10:09:24;;;;;;;12.93;8.60;;;2.70;99.90;;;;;;5059364;28;20213;-67
2021/01/12 10:11:50;;;;;;;3.60;3.30;;;2.70;99.90;;;;;;5080190;28;20454;-68
2021/01/12 10:14:17;;;;;;;1.67;1.57;;;2.70;99.90;;;;;;5106238;28;20483;-67
2021/01/12 10:16:43;;;;;;;1.00;0.80;;;2.70;99.90;;;;;;5069715;28;20232;-67
2021/01/12 10:19:08;;;;;;;0.97;0.63;;;2.80;99.90;;;;;;5090572;28;20474;-68
2021/01/12 10:21:34;;;;;;;0.87;0.60;;;2.80;99.90;;;;;;5063654;28;20305;-67
2021/01/12 10:24:01;;;;;;;0.90;0.90;;;2.80;99.90;;;;;;5094595;28;20228;-67
2021/01/12 10:26:27;;;;;;;12.97;6.20;;;2.90;99.90;;;;;;5091977;28;20214;-67
2021/01/12 10:28:52;;;;;;;16.37;8.13;;;2.90;99.90;;;;;;5099535;28;20456;-66
2021/01/12 10:31:20;;;;;;;31.20;15.57;;;2.90;99.90;;;;;;5065616;28;20457;-67
2021/01/12 10:33:48;;;;;;;7.10;4.10;;;3.00;99.90;;;;;;5070265;28;20222;-67
2021/01/12 10:36:15;;;;;;;4.37;2.17;;;3.00;99.90;;;;;;5115157;27;20459;-67
2021/01/12 10:38:42;;;;;;;5.37;2.60;;;3.00;99.90;;;;;;5100768;28;20472;-67
2021/01/12 10:41:08;;;;;;;1.57;1.40;;;3.00;99.90;;;;;;5067420;28;20449;-68
2021/01/12 10:43:34;;;;;;;1.17;1.07;;;3.00;99.90;;;;;;5088265;28;20451;-68
2021/01/12 10:46:01;;;;;;;1.13;1.03;;;3.10;99.90;;;;;;5075812;28;20214;-67
2021/01/12 10:48:27;;;;;;;0.90;0.90;;;3.10;99.90;;;;;;5070979;28;20455;-68
2021/01/12 10:50:53;;;;;;;1.00;1.00;;;3.10;99.90;;;;;;5072448;27;20221;-68
2021/01/12 10:53:18;;;;;;;0.93;0.90;;;3.10;99.90;;;;;;5075322;28;20505;-68
2021/01/12 10:55:44;;;;;;;1.10;1.00;;;3.10;99.90;;;;;;5057883;28;20444;-68
2021/01/12 10:58:10;;;;;;;0.60;0.60;;;3.10;99.90;;;;;;5109191;27;20595;-68
2021/01/12 11:00:36;;;;;;;0.70;0.70;;;3.10;99.90;;;;;;5095126;28;20288;-68
2021/01/12 11:03:03;;;;;;;2.10;0.90;;;3.10;99.90;;;;;;5077939;28;20230;-68
2021/01/12 11:05:28;;;;;;;0.83;0.60;;;3.10;99.90;;;;;;5094986;28;20890;-68
2021/01/12 11:07:54;;;;;;;0.70;0.70;;;3.10;99.90;;;;;;5100859;28;20530;-68
2021/01/12 11:10:20;;;;;;;2.13;1.60;;;3.10;99.90;;;;;;5088720;28;20209;-68
2021/01/12 11:12:47;;;;;;;1.27;0.73;;;3.10;99.90;;;;;;5083131;28;20514;-68
2021/01/12 11:15:14;;;;;;;1.23;1.10;;;3.10;99.90;;;;;;5073125;28;20222;-68
2021/01/12 11:17:39;;;;;;;0.90;0.90;;;3.10;99.90;;;;;;5093731;28;20827;-68
2021/01/12 11:20:08;;;;;;;1.30;0.93;;;3.10;99.90;;;;;;5094672;28;20476;-68
2021/01/12 11:22:34;;;;;;;1.40;1.30;;;3.10;99.90;;;;;;5095782;28;20229;-68
2021/01/12 11:25:01;;;;;;;5.10;2.97;;;3.10;99.90;;;;;;5095115;28;20522;-68
2021/01/12 11:27:28;;;;;;;8.60;4.80;;;3.10;99.90;;;;;;5096211;28;20463;-68
2021/01/12 11:29:54;;;;;;;11.43;4.73;;;3.10;99.90;;;;;;5094749;28;20463;-68
2021/01/12 11:32:21;;;;;;;8.60;2.80;;;3.10;99.90;;;;;;5084151;28;20951;-68
2021/01/12 11:34:47;;;;;;;11.03;5.17;;;3.10;99.90;;;;;;5106401;28;20501;-69
2021/01/12 11:37:14;;;;;;;7.40;4.10;;;3.10;99.90;;;;;;5057388;28;20488;-69
2021/01/12 11:39:40;;;;;;;16.77;5.50;;;3.20;99.90;;;;;;5087087;28;20885;-66
2021/01/12 11:42:10;;;;;;;10.70;5.40;;;3.20;99.90;;;;;;5107907;28;20466;-67
2021/01/12 11:44:37;;;;;;;6.33;3.90;;;3.20;99.90;;;;;;5078921;28;20463;-67
2021/01/12 11:47:04;;;;;;;6.17;2.97;;;3.20;99.90;;;;;;5084270;28;20829;-69
2021/01/12 11:49:29;;;;;;;11.20;4.03;;;3.20;99.90;;;;;;5074716;28;20497;-68
2021/01/12 11:51:55;;;;;;;13.13;4.67;;;3.20;99.90;;;;;;5052920;28;20480;-69
2021/01/12 11:54:21;;;;;;;8.83;4.20;;;3.20;99.90;;;;;;5076287;28;20221;-68
2021/01/12 11:56:55;;;;;;;13.67;4.97;;;3.20;99.90;;;;;;5074756;28;20304;-68
2021/01/12 11:59:25;;;;;;;10.50;5.07;;;3.20;99.90;;;;;;5095194;28;20242;-69
2021/01/12 12:01:53;;;;;;;16.37;5.90;;;3.20;99.90;;;;;;5071272;28;21033;-67
2021/01/12 12:04:20;;;;;;;17.03;6.80;;;3.20;99.90;;;;;;5087994;28;20483;-67
2021/01/12 12:06:50;;;;;;;18.37;5.80;;;3.20;99.90;;;;;;5089789;28;20474;-68
2021/01/12 12:09:16;;;;;;;10.00;5.43;;;3.30;99.90;;;;;;5089879;27;20526;-67
2021/01/12 12:11:42;;;;;;;21.33;7.47;;;3.30;99.90;;;;;;5092153;27;20450;-68
2021/01/12 12:14:10;;;;;;;41.10;14.43;;;3.20;99.90;;;;;;5087158;27;20461;-68
2021/01/12 12:16:36;;;;;;;43.03;18.27;;;3.20;99.90;;;;;;5074309;27;21011;-69
2021/01/12 12:19:03;;;;;;;38.33;12.40;;;3.30;99.90;;;;;;5077924;27;20474;-68
2021/01/12 12:21:29;;;;;;;19.87;8.20;;;3.30;99.90;;;;;;5086143;28;20979;-68
2021/01/12 12:23:55;;;;;;;20.17;7.87;;;3.30;99.90;;;;;;5100269;28;20453;-68
2021/01/12 12:26:21;;;;;;;23.63;8.83;;;3.30;99.90;;;;;;5086854;28;20535;-68
2021/01/12 12:28:47;;;;;;;17.33;6.70;;;3.40;99.90;;;;;;5073624;28;20540;-69
2021/01/12 12:31:13;;;;;;;15.03;5.53;;;3.40;99.90;;;;;;5072021;28;20230;-68
2021/01/12 12:33:40;;;;;;;8.27;4.63;;;3.40;99.90;;;;;;5131578;27;20692;-68
2021/01/12 12:36:08;;;;;;;11.83;6.57;;;3.40;99.90;;;;;;5114098;27;20463;-68
2021/01/12 12:38:36;;;;;;;17.50;7.67;;;3.40;99.90;;;;;;5068262;28;20562;-68
2021/01/12 12:41:09;;;;;;;10.17;6.70;;;3.50;99.90;;;;;;5077054;28;20522;-68
2021/01/12 12:43:35;;;;;;;7.10;4.47;;;3.50;99.90;;;;;;5070019;28;20822;-68
2021/01/12 12:46:01;;;;;;;7.10;3.70;;;3.50;99.90;;;;;;5092361;28;20459;-68
2021/01/12 12:48:27;;;;;;;3.70;2.90;;;3.50;99.90;;;;;;5090536;28;20452;-68
2021/01/12 12:50:54;;;;;;;3.80;1.83;;;3.50;99.90;;;;;;5092879;28;20463;-69
2021/01/12 12:53:20;;;;;;;5.20;3.70;;;3.50;99.90;;;;;;5074960;28;20747;-68
2021/01/12 12:55:48;;;;;;;11.50;6.90;;;3.50;99.90;;;;;;5086916;28;20467;-68
2021/01/12 12:58:14;;;;;;;12.20;6.73;;;3.50;99.90;;;;;;5087192;28;20444;-67